createdAt,value
2019-04-27T00:00:07.854Z,97126.83
2019-04-27T00:03:20.138Z,97129.80
2019-04-27T00:06:30.886Z,97125.36
2019-04-27T00:09:50.045Z,97109.83
2019-04-27T00:12:50.673Z,97120.63
2019-04-27T00:16:11.164Z,97126.33
2019-04-27T00:19:27.337Z,97128.59
2019-04-27T00:22:37.412Z,97117.19
2019-04-27T00:25:44.240Z,97117.14
2019-04-27T00:28:50.791Z,97114.91
2019-04-27T00:31:57.463Z,97118.83
2019-04-27T00:35:08.452Z,97123.23
2019-04-27T00:38:34.010Z,97115.95
2019-04-27T00:41:40.578Z,97112.12
2019-04-27T00:44:47.216Z,97108.74
2019-04-27T00:47:59.283Z,97113.22
2019-04-27T00:51:02.035Z,97112.03
2019-04-27T00:54:08.604Z,97112.50
2019-04-27T00:57:35.055Z,97106.25
2019-04-27T01:01:14.934Z,97103.71
2019-04-27T01:04:24.532Z,97105.84
2019-04-27T01:07:33.421Z,97097.48
2019-04-27T01:10:39.980Z,97085.73
2019-04-27T01:13:46.660Z,97089.77
2019-04-27T01:16:53.389Z,97090.37
2019-04-27T01:20:00.005Z,97086.88
2019-04-27T01:23:06.515Z,97081.02
2019-04-27T01:26:30.964Z,97069.09
2019-04-27T01:29:39.261Z,97069.87
2019-04-27T01:32:45.744Z,97070.10
2019-04-27T01:35:52.231Z,97073.59
2019-04-27T01:38:59.543Z,97078.17
2019-04-27T01:42:06.300Z,97080.39
2019-04-27T01:45:13.199Z,97089.91
2019-04-27T01:48:23.881Z,97089.33
2019-04-27T01:51:29.457Z,97089.80
2019-04-27T01:54:36.929Z,97086.92
2019-04-27T01:57:43.386Z,97088.87
2019-04-27T02:01:12.833Z,97088.33
2019-04-27T02:04:26.900Z,97084.75
2019-04-27T02:07:33.593Z,97092.81
2019-04-27T02:10:40.087Z,97088.91
2019-04-27T02:13:46.832Z,97087.34
2019-04-27T02:16:53.478Z,97083.13
2019-04-27T02:20:01.120Z,97077.15
2019-04-27T02:23:09.143Z,97083.33
2019-04-27T02:26:15.833Z,97069.91
2019-04-27T02:29:51.120Z,97070.61
2019-04-27T02:33:22.471Z,97069.29
2019-04-27T02:36:31.257Z,97075.38
2019-04-27T02:39:39.890Z,97076.45
2019-04-27T02:42:49.950Z,97074.43
2019-04-27T02:45:56.219Z,97076.70
2019-04-27T02:49:06.334Z,97073.45
2019-04-27T02:52:20.535Z,97073.21
2019-04-27T02:55:29.246Z,97076.02
2019-04-27T02:58:35.788Z,97075.46
2019-04-27T03:01:54.459Z,97071.33
2019-04-27T03:05:01.899Z,97075.80
2019-04-27T03:08:10.249Z,97080.67
2019-04-27T03:11:16.873Z,97084.03
2019-04-27T03:14:43.741Z,97090.14
2019-04-27T03:18:09.915Z,97079.33
2019-04-27T03:21:22.067Z,97085.69
2019-04-27T03:24:46.519Z,97079.94
2019-04-27T03:27:55.179Z,97080.78
2019-04-27T03:31:02.971Z,97079.81
2019-04-27T03:34:15.724Z,97078.16
2019-04-27T03:37:20.321Z,97080.19
2019-04-27T03:40:27.023Z,97077.50
2019-04-27T03:43:33.573Z,97085.97
2019-04-27T03:46:42.338Z,97089.83
2019-04-27T03:49:50.751Z,97081.78
2019-04-27T03:53:16.949Z,97083.59
2019-04-27T03:56:33.047Z,97083.77
2019-04-27T04:00:06.210Z,97088.50
2019-04-27T04:03:14.312Z,97088.31
2019-04-27T04:06:20.832Z,97088.79
2019-04-27T04:09:40.371Z,97085.02
2019-04-27T04:12:56.203Z,97077.46
2019-04-27T04:16:15.972Z,97077.77
2019-04-27T04:19:22.616Z,97078.81
2019-04-27T04:22:30.274Z,97086.19
2019-04-27T04:25:37.283Z,97090.41
2019-04-27T04:28:46.158Z,97086.78
2019-04-27T04:31:52.737Z,97092.11
2019-04-27T04:35:21.213Z,97091.97
2019-04-27T04:38:30.437Z,97089.56
2019-04-27T04:41:51.494Z,97098.67
2019-04-27T04:45:22.625Z,97096.98
2019-04-27T04:48:30.438Z,97094.56
2019-04-27T04:51:37.210Z,97091.98
2019-04-27T04:54:44.142Z,97089.44
2019-04-27T04:57:50.731Z,97096.63
2019-04-27T05:00:59.650Z,97091.54
2019-04-27T05:04:05.630Z,97094.22
2019-04-27T05:07:12.236Z,97089.00
2019-04-27T05:10:19.015Z,97089.70
2019-04-27T05:13:27.217Z,97096.05
2019-04-27T05:16:33.706Z,97088.40
2019-04-27T05:19:40.167Z,97096.67
2019-04-27T05:22:49.133Z,97091.61
2019-04-27T05:25:55.876Z,97084.69
2019-04-27T05:29:03.357Z,97089.33
2019-04-27T05:32:11.472Z,97093.66
2019-04-27T05:35:19.419Z,97092.52
2019-04-27T05:38:27.036Z,97094.94
2019-04-27T05:41:37.746Z,97088.10
2019-04-27T05:45:31.136Z,97085.50
2019-04-27T05:48:39.099Z,97089.52
2019-04-27T05:51:48.026Z,97089.91
2019-04-27T05:54:53.912Z,97085.77
2019-04-27T05:58:00.421Z,97082.19
2019-04-27T06:01:06.972Z,97082.78
2019-04-27T06:04:13.436Z,97078.56
2019-04-27T06:07:19.942Z,97079.95
2019-04-27T06:10:26.582Z,97080.12
2019-04-27T06:13:33.008Z,97084.25
2019-04-27T06:16:39.585Z,97089.05
2019-04-27T06:19:46.064Z,97087.56
2019-04-27T06:22:52.734Z,97094.76
2019-04-27T06:26:01.821Z,97093.94
2019-04-27T06:29:09.453Z,97088.73
2019-04-27T06:32:16.139Z,97081.05
2019-04-27T06:35:22.703Z,97086.73
2019-04-27T06:38:30.460Z,97085.25
2019-04-27T06:41:37.058Z,97090.37
2019-04-27T06:44:43.542Z,97085.43
2019-04-27T06:47:51.281Z,97089.75
2019-04-27T06:51:05.030Z,97085.97
2019-04-27T06:54:06.118Z,97085.80
2019-04-27T06:57:12.663Z,97090.08
2019-04-27T07:00:20.180Z,97090.55
2019-04-27T07:03:28.953Z,97088.94
2019-04-27T07:06:35.699Z,97090.09
2019-04-27T07:09:42.312Z,97083.99
2019-04-27T07:12:49.264Z,97080.27
2019-04-27T07:15:55.777Z,97080.00
2019-04-27T07:19:02.294Z,97080.69
2019-04-27T07:22:09.100Z,97085.95
2019-04-27T07:25:18.903Z,97082.37
2019-04-27T07:28:25.368Z,97081.52
2019-04-27T07:31:32.051Z,97086.02
2019-04-27T07:34:38.887Z,97086.86
2019-04-27T07:37:45.919Z,97091.80
2019-04-27T07:41:06.770Z,97082.83
2019-04-27T07:44:22.329Z,97084.72
2019-04-27T07:47:31.116Z,97075.35
2019-04-27T07:50:39.022Z,97074.87
2019-04-27T07:53:45.631Z,97072.05
2019-04-27T07:56:53.156Z,97075.95
2019-04-27T08:00:01.080Z,97073.45
2019-04-27T08:03:10.060Z,97072.25
2019-04-27T08:06:18.830Z,97080.70
2019-04-27T08:09:25.025Z,97086.23
2019-04-27T08:12:32.914Z,97087.48
2019-04-27T08:15:39.751Z,97088.53
2019-04-27T08:18:46.345Z,97101.73
2019-04-27T08:21:52.811Z,97089.80
2019-04-27T08:24:59.640Z,97089.80
2019-04-27T08:28:20.558Z,97090.96
2019-04-27T08:31:32.596Z,97087.66
2019-04-27T08:34:39.824Z,97087.42
2019-04-27T08:37:46.254Z,97092.20
2019-04-27T08:40:53.765Z,97090.30
2019-04-27T08:44:00.245Z,97081.77
2019-04-27T08:47:06.831Z,97079.13
2019-04-27T08:50:13.882Z,97078.48
2019-04-27T08:53:20.554Z,97079.04
2019-04-27T08:56:27.063Z,97079.42
2019-04-27T08:59:33.723Z,97083.44
2019-04-27T09:02:46.762Z,97081.13
2019-04-27T09:05:49.048Z,97066.98
2019-04-27T09:09:04.383Z,97069.03
2019-04-27T09:12:29.454Z,97067.37
2019-04-27T09:15:43.716Z,97071.84
2019-04-27T09:18:51.795Z,97065.02
2019-04-27T09:22:13.382Z,97062.98
2019-04-27T09:25:13.841Z,97066.32
2019-04-27T09:28:21.895Z,97062.82
2019-04-27T09:31:28.857Z,97061.30
2019-04-27T09:34:36.666Z,97058.31
2019-04-27T09:37:43.386Z,97056.53
2019-04-27T09:40:49.893Z,97051.78
2019-04-27T09:43:56.409Z,97046.97
2019-04-27T09:47:02.904Z,97051.87
2019-04-27T09:50:09.926Z,97053.23
2019-04-27T09:53:16.701Z,97051.31
2019-04-27T09:56:23.394Z,97050.27
2019-04-27T09:59:33.218Z,97050.59
2019-04-27T10:02:39.892Z,97049.76
2019-04-27T10:05:46.427Z,97053.39
2019-04-27T10:08:53.156Z,97052.92
2019-04-27T10:11:59.738Z,97042.25
2019-04-27T10:15:07.250Z,97041.08
2019-04-27T10:18:13.775Z,97044.55
2019-04-27T10:21:20.368Z,97035.44
2019-04-27T10:24:27.291Z,97041.45
2019-04-27T10:27:35.834Z,97040.24
2019-04-27T10:30:42.261Z,97033.62
2019-04-27T10:33:48.767Z,97027.87
2019-04-27T10:36:55.941Z,97019.48
2019-04-27T10:40:02.497Z,97023.11
2019-04-27T10:43:11.688Z,97029.48
2019-04-27T10:46:18.266Z,97025.77
2019-04-27T10:49:24.792Z,97015.36
2019-04-27T10:52:31.413Z,97021.87
2019-04-27T10:55:38.237Z,97013.81
2019-04-27T10:58:45.697Z,97015.31
2019-04-27T11:01:53.509Z,97015.59
2019-04-27T11:05:13.742Z,97017.53
2019-04-27T11:08:20.355Z,97015.59
2019-04-27T11:11:27.791Z,97009.69
2019-04-27T11:14:34.555Z,97013.30
2019-04-27T11:17:41.080Z,97005.63
2019-04-27T11:20:47.653Z,97003.16
2019-04-27T11:23:55.862Z,97002.59
2019-04-27T11:27:02.594Z,97002.70
2019-04-27T11:30:10.813Z,96998.58
2019-04-27T11:33:17.628Z,96998.28
2019-04-27T11:36:48.259Z,96991.17
2019-04-27T11:39:55.955Z,96994.44
2019-04-27T11:43:03.774Z,96988.11
2019-04-27T11:46:10.330Z,96986.19
2019-04-27T11:49:17.023Z,96978.55
2019-04-27T11:52:23.530Z,96981.51
2019-04-27T11:55:33.110Z,96969.20
2019-04-27T11:58:39.727Z,96965.81
2019-04-27T12:01:47.912Z,96978.44
2019-04-27T12:04:54.305Z,96969.90
2019-04-27T12:08:01.063Z,96955.95
2019-04-27T12:11:07.907Z,96953.66
2019-04-27T12:14:14.396Z,96953.38
2019-04-27T12:17:21.141Z,96945.61
2019-04-27T12:20:31.283Z,96939.39
2019-04-27T12:23:41.217Z,96940.56
2019-04-27T12:26:53.063Z,96938.13
2019-04-27T12:30:13.070Z,96934.36
2019-04-27T12:33:20.029Z,96940.34
2019-04-27T12:36:27.982Z,96927.91
2019-04-27T12:39:34.461Z,96921.81
2019-04-27T12:42:40.947Z,96920.38
2019-04-27T12:45:47.668Z,96913.51
2019-04-27T12:48:55.333Z,96917.86
2019-04-27T12:52:02.639Z,96911.60
2019-04-27T12:55:31.493Z,96903.66
2019-04-27T12:58:47.531Z,96900.82
2019-04-27T13:01:56.013Z,96893.40
2019-04-27T13:05:02.537Z,96895.06
2019-04-27T13:08:09.317Z,96892.75
2019-04-27T13:11:16.282Z,96884.88
2019-04-27T13:14:24.000Z,96881.92
2019-04-27T13:17:30.752Z,96879.04
2019-04-27T13:20:37.653Z,96872.66
2019-04-27T13:23:45.817Z,96872.72
2019-04-27T13:26:52.533Z,96873.06
2019-04-27T13:30:00.829Z,96874.05
2019-04-27T13:33:07.449Z,96862.76
2019-04-27T13:36:16.940Z,96867.14
2019-04-27T13:39:23.363Z,96866.35
2019-04-27T13:42:32.377Z,96853.82
2019-04-27T13:45:50.546Z,96855.72
2019-04-27T13:49:21.768Z,96858.41
2019-04-27T13:52:31.659Z,96853.37
2019-04-27T13:55:38.385Z,96849.69
2019-04-27T13:58:48.199Z,96842.73
2019-04-27T14:01:54.694Z,96842.89
2019-04-27T14:05:01.285Z,96835.34
2019-04-27T14:08:09.163Z,96824.59
2019-04-27T14:11:15.711Z,96829.13
2019-04-27T14:14:22.439Z,96824.06
2019-04-27T14:17:30.507Z,96818.88
2019-04-27T14:20:38.820Z,96816.08
2019-04-27T14:23:45.468Z,96816.01
2019-04-27T14:26:51.974Z,96803.42
2019-04-27T14:29:59.565Z,96808.59
2019-04-27T14:33:08.364Z,96805.10
2019-04-27T14:36:18.245Z,96798.81
2019-04-27T14:39:25.277Z,96797.51
2019-04-27T14:42:32.081Z,96805.30
2019-04-27T14:45:39.743Z,96794.76
2019-04-27T14:48:46.536Z,96800.05
2019-04-27T14:51:53.217Z,96796.27
2019-04-27T14:54:59.849Z,96803.12
2019-04-27T14:58:06.503Z,96795.52
2019-04-27T15:01:13.066Z,96794.38
2019-04-27T15:04:19.779Z,96795.30
2019-04-27T15:07:26.745Z,96801.14
2019-04-27T15:10:36.033Z,96803.42
2019-04-27T15:13:43.012Z,96801.27
2019-04-27T15:16:49.849Z,96802.47
2019-04-27T15:20:01.689Z,96799.27
2019-04-27T15:23:10.069Z,96801.61
2019-04-27T15:26:21.839Z,96792.77
2019-04-27T15:29:27.727Z,96799.80
2019-04-27T15:32:47.997Z,96799.09
2019-04-27T15:36:01.866Z,96794.92
2019-04-27T15:39:14.423Z,96793.45
2019-04-27T15:42:28.317Z,96799.59
2019-04-27T15:45:35.025Z,96797.17
2019-04-27T15:48:41.476Z,96807.20
2019-04-27T15:51:50.651Z,96813.15
2019-04-27T15:54:58.114Z,96822.57
2019-04-27T15:58:04.664Z,96829.27
2019-04-27T16:01:12.099Z,96833.63
2019-04-27T16:04:18.672Z,96837.12
2019-04-27T16:07:30.388Z,96842.66
2019-04-27T16:10:37.339Z,96851.69
2019-04-27T16:13:45.169Z,96854.73
2019-04-27T16:16:51.750Z,96872.02
2019-04-27T16:19:58.303Z,96888.16
2019-04-27T16:23:05.077Z,96890.91
2019-04-27T16:26:14.993Z,96909.99
2019-04-27T16:29:23.142Z,96911.20
2019-04-27T16:32:28.741Z,96909.27
2019-04-27T16:35:35.272Z,96912.74
2019-04-27T16:38:56.780Z,96912.69
2019-04-27T16:42:03.516Z,96912.66
2019-04-27T16:45:10.292Z,96909.11
2019-04-27T16:48:18.561Z,96901.58
2019-04-27T16:51:25.441Z,96901.55
2019-04-27T16:54:32.112Z,96900.86
2019-04-27T16:57:40.070Z,96906.44
2019-04-27T17:00:48.143Z,96905.48
2019-04-27T17:03:55.189Z,96911.92
2019-04-27T17:07:01.688Z,96903.11
2019-04-27T17:10:09.397Z,96910.53
2019-04-27T17:13:16.529Z,96911.12
2019-04-27T17:16:58.180Z,96914.80
2019-04-27T17:20:05.394Z,96922.17
2019-04-27T17:23:11.884Z,96916.39
2019-04-27T17:26:21.881Z,96923.09
2019-04-27T17:29:28.004Z,96929.64
2019-04-27T17:32:48.645Z,96924.55
2019-04-27T17:35:54.187Z,96933.45
2019-04-27T17:39:00.797Z,96933.80
2019-04-27T17:42:09.727Z,96931.53
2019-04-27T17:45:16.450Z,96931.77
2019-04-27T17:48:22.948Z,96933.00
2019-04-27T17:51:35.332Z,96930.88
2019-04-27T17:54:47.504Z,96931.74
2019-04-27T17:57:49.406Z,96932.16
2019-04-27T18:00:55.973Z,96927.95
2019-04-27T18:04:03.102Z,96925.92
2019-04-27T18:07:10.861Z,96926.82
2019-04-27T18:10:22.406Z,96930.64
2019-04-27T18:13:26.530Z,96928.44
2019-04-27T18:16:34.498Z,96933.52
2019-04-27T18:19:46.563Z,96925.11
2019-04-27T18:23:10.612Z,96926.33
2019-04-27T18:26:19.307Z,96936.98
2019-04-27T18:29:30.853Z,96938.09
2019-04-27T18:32:37.924Z,96931.98
2019-04-27T18:35:44.849Z,96939.11
2019-04-27T18:38:51.495Z,96938.27
2019-04-27T18:42:00.866Z,96934.98
2019-04-27T18:45:08.503Z,96941.07
2019-04-27T18:48:21.131Z,96942.42
2019-04-27T18:52:04.195Z,96945.86
2019-04-27T18:55:11.356Z,96936.45
2019-04-27T18:58:21.578Z,96944.03
2019-04-27T19:01:28.992Z,96939.81
2019-04-27T19:04:35.578Z,96950.88
2019-04-27T19:07:42.596Z,96949.16
2019-04-27T19:10:49.488Z,96956.97
2019-04-27T19:13:55.985Z,96954.01
2019-04-27T19:17:02.559Z,96951.98
2019-04-27T19:20:10.428Z,96949.09
2019-04-27T19:23:17.307Z,96950.30
2019-04-27T19:26:45.727Z,96946.31
2019-04-27T19:29:55.510Z,96948.00
2019-04-27T19:33:02.214Z,96960.32
2019-04-27T19:36:08.978Z,96963.03
2019-04-27T19:39:15.824Z,96965.29
2019-04-27T19:42:22.680Z,96967.83
2019-04-27T19:45:29.782Z,96966.67
2019-04-27T19:48:36.298Z,96975.72
2019-04-27T19:51:42.764Z,96979.98
2019-04-27T19:54:49.486Z,96987.52
2019-04-27T19:58:01.524Z,97010.70
2019-04-27T20:01:14.653Z,97026.19
2019-04-27T20:04:27.861Z,97042.02
2019-04-27T20:07:34.813Z,97031.90
2019-04-27T20:10:43.887Z,97044.52
2019-04-27T20:13:50.639Z,97047.20
2019-04-27T20:16:58.783Z,97052.83
2019-04-27T20:20:07.492Z,97051.02
2019-04-27T20:23:16.759Z,97056.99
2019-04-27T20:26:23.272Z,97064.88
2019-04-27T20:29:31.755Z,97071.41
2019-04-27T20:36:01.037Z,97065.22
2019-04-27T20:39:11.675Z,97060.00
2019-04-27T20:42:18.071Z,97057.70
2019-04-27T20:45:24.826Z,97053.32
2019-04-27T20:48:31.453Z,97056.33
2019-04-27T20:51:55.928Z,97046.08
2019-04-27T20:55:02.497Z,97050.05
2019-04-27T20:58:09.081Z,97051.78
2019-04-27T21:01:16.035Z,97050.98
2019-04-27T21:04:26.103Z,97053.88
2019-04-27T21:07:47.612Z,97053.41
2019-04-27T21:10:55.253Z,97059.75
2019-04-27T21:14:01.776Z,97054.31
2019-04-27T21:17:08.407Z,97057.41
2019-04-27T21:20:15.269Z,97053.72
2019-04-27T21:23:24.553Z,97050.62
2019-04-27T21:26:32.240Z,97049.76
2019-04-27T21:29:38.830Z,97045.47
2019-04-27T21:32:45.334Z,97040.41
2019-04-27T21:35:51.803Z,97028.73
2019-04-27T21:38:58.540Z,97031.00
2019-04-27T21:42:06.041Z,97033.50
2019-04-27T21:45:12.922Z,97035.42
2019-04-27T21:48:21.238Z,97035.94
2019-04-27T21:51:28.084Z,97053.52
2019-04-27T21:54:35.908Z,97070.52
2019-04-27T21:57:42.462Z,97059.65
2019-04-27T22:01:13.590Z,97071.47
2019-04-27T22:04:22.846Z,97081.47
2019-04-27T22:07:29.301Z,97081.77
2019-04-27T22:10:37.960Z,97079.95
2019-04-27T22:13:44.335Z,97082.42
2019-04-27T22:17:04.747Z,97090.73
2019-04-27T22:20:11.843Z,97087.25
2019-04-27T22:23:34.167Z,97092.97
2019-04-27T22:26:41.477Z,97097.66
2019-04-27T22:29:48.233Z,97100.44
2019-04-27T22:32:54.749Z,97104.13
2019-04-27T22:36:01.895Z,97108.86
2019-04-27T22:39:36.702Z,97110.38
2019-04-27T22:42:57.411Z,97113.27
2019-04-27T22:46:04.649Z,97112.13
2019-04-27T22:49:11.303Z,97115.41
2019-04-27T22:52:17.826Z,97115.70
2019-04-27T22:55:24.478Z,97120.58
2019-04-27T22:58:31.449Z,97123.00
2019-04-27T23:01:51.157Z,97124.52
2019-04-27T23:05:01.746Z,97123.14
2019-04-27T23:08:09.725Z,97121.72
2019-04-27T23:11:16.292Z,97116.16
2019-04-27T23:14:22.911Z,97124.99
2019-04-27T23:17:42.290Z,97132.74
2019-04-27T23:20:48.721Z,97129.77
2019-04-27T23:23:55.291Z,97136.48
2019-04-27T23:27:03.579Z,97143.87
2019-04-27T23:30:11.324Z,97139.25
2019-04-27T23:33:18.072Z,97139.45
2019-04-27T23:36:24.660Z,97143.05
2019-04-27T23:39:31.194Z,97136.39
2019-04-27T23:42:37.731Z,97134.10
2019-04-27T23:45:44.288Z,97142.86
2019-04-27T23:48:52.039Z,97139.41
2019-04-27T23:52:06.207Z,97148.06
2019-04-27T23:55:12.733Z,97140.97
2019-04-27T23:58:19.253Z,97142.30
